createdAt,value
2022-10-09T00:02:39.964Z,2.75
2022-10-09T00:07:41.501Z,3.42
2022-10-09T00:12:42.966Z,3.22
2022-10-09T00:17:44.389Z,3.13
2022-10-09T00:22:46.070Z,3.50
2022-10-09T00:27:48.120Z,3.35
2022-10-09T00:32:49.749Z,3.25
2022-10-09T00:37:51.401Z,3.40
2022-10-09T00:42:57.222Z,3.00
2022-10-09T00:48:04.801Z,3.15
2022-10-09T00:53:06.630Z,3.20
2022-10-09T00:58:08.524Z,3.15
2022-10-09T01:03:10.055Z,2.80
2022-10-09T01:08:19.093Z,3.38
2022-10-09T01:13:32.548Z,2.63
2022-10-09T01:18:45.501Z,2.60
2022-10-09T01:23:52.769Z,2.80
2022-10-09T01:29:00.123Z,2.60
2022-10-09T01:34:01.937Z,2.55
2022-10-09T01:39:05.879Z,2.40
2022-10-09T01:44:18.664Z,2.70
2022-10-09T01:50:04.131Z,2.30
2022-10-09T01:55:16.172Z,2.30
2022-10-09T02:00:18.396Z,2.10
2022-10-09T02:05:23.398Z,2.25
2022-10-09T02:10:25.901Z,1.70
2022-10-09T02:15:33.852Z,2.20
2022-10-09T02:20:39.474Z,2.42
2022-10-09T02:25:41.319Z,2.40
2022-10-09T02:31:13.538Z,2.17
2022-10-09T02:36:15.009Z,2.10
2022-10-09T02:41:16.448Z,2.20
2022-10-09T02:46:18.855Z,2.22
2022-10-09T02:51:20.336Z,1.90
2022-10-09T02:56:25.257Z,2.20
2022-10-09T03:01:26.755Z,2.40
2022-10-09T03:06:29.156Z,2.10
2022-10-09T03:11:30.618Z,2.28
2022-10-09T03:16:32.154Z,2.38
2022-10-09T03:21:33.638Z,2.05
2022-10-09T03:26:35.046Z,2.28
2022-10-09T03:31:53.297Z,2.13
2022-10-09T03:36:54.962Z,2.03
2022-10-09T03:41:56.456Z,2.22
2022-10-09T03:46:57.891Z,1.98
2022-10-09T03:51:59.452Z,2.22
2022-10-09T03:57:00.906Z,2.33
2022-10-09T04:02:02.358Z,4.70
2022-10-09T04:07:03.784Z,6.35
2022-10-09T04:12:05.283Z,3.25
2022-10-09T04:17:07.215Z,2.50
2022-10-09T04:22:08.667Z,2.38
2022-10-09T04:27:10.162Z,2.90
2022-10-09T04:32:11.625Z,2.22
2022-10-09T04:37:13.041Z,2.60
2022-10-09T04:42:14.533Z,1.90
2022-10-09T04:47:15.989Z,2.40
2022-10-09T04:52:17.450Z,2.10
2022-10-09T04:57:18.870Z,1.92
2022-10-09T05:02:20.322Z,2.10
2022-10-09T05:07:21.765Z,2.17
2022-10-09T05:12:23.301Z,1.98
2022-10-09T05:17:24.889Z,2.15
2022-10-09T05:22:26.366Z,2.25
2022-10-09T05:27:27.795Z,2.08
2022-10-09T05:32:29.194Z,1.92
2022-10-09T05:37:30.598Z,1.83
2022-10-09T05:42:32.017Z,1.95
2022-10-09T05:47:33.430Z,2.08
2022-10-09T05:52:38.615Z,2.47
2022-10-09T05:57:40.056Z,2.25
2022-10-09T06:02:41.597Z,2.20
2022-10-09T06:07:43.100Z,2.35
2022-10-09T06:12:44.496Z,2.78
2022-10-09T06:17:45.968Z,2.63
2022-10-09T06:22:47.583Z,2.30
2022-10-09T06:27:49.291Z,2.35
2022-10-09T06:32:51.147Z,2.65
2022-10-09T06:37:53.072Z,2.25
2022-10-09T06:42:54.518Z,2.10
2022-10-09T06:47:56.144Z,2.05
2022-10-09T06:52:57.560Z,2.28
2022-10-09T06:57:59.566Z,2.25
2022-10-09T07:03:01.071Z,2.75
2022-10-09T07:08:02.560Z,2.40
2022-10-09T07:13:04.013Z,2.35
2022-10-09T07:18:05.656Z,2.22
2022-10-09T07:23:07.144Z,2.30
2022-10-09T07:28:08.623Z,2.50
2022-10-09T07:33:10.165Z,2.10
2022-10-09T07:38:11.565Z,2.30
2022-10-09T07:43:12.977Z,2.30
2022-10-09T07:48:14.462Z,2.50
2022-10-09T07:53:15.862Z,2.20
2022-10-09T07:58:17.575Z,2.50
2022-10-09T08:03:19.013Z,2.03
2022-10-09T08:08:20.431Z,2.33
2022-10-09T08:13:22.146Z,2.35
2022-10-09T08:18:23.558Z,1.90
2022-10-09T08:23:25.101Z,2.30
2022-10-09T08:28:26.715Z,2.10
2022-10-09T08:33:28.199Z,2.15
2022-10-09T08:38:46.761Z,1.80
2022-10-09T08:43:56.149Z,2.15
2022-10-09T08:49:00.605Z,1.93
2022-10-09T08:54:12.575Z,1.92
2022-10-09T08:59:14.181Z,1.95
2022-10-09T09:04:34.742Z,1.60
2022-10-09T09:09:46.974Z,1.75
2022-10-09T09:15:10.092Z,1.90
2022-10-09T09:20:31.379Z,1.92
2022-10-09T09:25:35.990Z,1.27
2022-10-09T09:30:51.957Z,1.00
2022-10-09T09:36:09.090Z,1.30
2022-10-09T09:41:10.503Z,1.20
2022-10-09T09:46:17.614Z,1.02
2022-10-09T09:51:29.661Z,1.30
2022-10-09T09:57:07.050Z,1.52
2022-10-09T10:02:12.695Z,1.23
2022-10-09T10:07:14.197Z,1.40
2022-10-09T10:12:18.245Z,1.33
2022-10-09T10:17:28.364Z,1.13
2022-10-09T10:22:36.027Z,1.20
2022-10-09T10:27:41.810Z,1.30
2022-10-09T10:33:03.939Z,1.13
2022-10-09T10:38:29.704Z,1.35
2022-10-09T10:43:35.127Z,0.90
2022-10-09T10:48:47.087Z,1.10
2022-10-09T10:54:05.454Z,0.88
2022-10-09T10:59:33.340Z,1.25
2022-10-09T11:04:49.995Z,1.10
2022-10-09T11:10:19.874Z,1.20
2022-10-09T11:15:26.377Z,1.00
2022-10-09T11:20:39.447Z,1.00
2022-10-09T11:25:58.969Z,0.90
2022-10-09T11:31:16.924Z,1.00
2022-10-09T11:36:39.988Z,1.10
2022-10-09T11:41:45.234Z,0.93
2022-10-09T11:47:01.597Z,1.08
2022-10-09T11:52:16.998Z,0.95
2022-10-09T11:57:28.418Z,1.00
2022-10-09T12:02:31.297Z,0.70
2022-10-09T12:07:36.922Z,1.00
2022-10-09T12:12:38.855Z,0.80
2022-10-09T12:17:48.627Z,0.70
2022-10-09T12:23:21.271Z,0.70
2022-10-09T12:28:39.218Z,0.90
2022-10-09T12:33:45.719Z,0.80
2022-10-09T12:38:47.172Z,0.93
2022-10-09T12:43:50.998Z,1.15
2022-10-09T12:48:53.119Z,0.80
2022-10-09T12:53:55.087Z,0.95
2022-10-09T12:58:58.545Z,0.80
2022-10-09T13:04:04.195Z,0.68
2022-10-09T13:09:08.436Z,0.80
2022-10-09T13:14:26.637Z,0.90
2022-10-09T13:19:31.219Z,0.80
2022-10-09T13:24:32.747Z,1.05
2022-10-09T13:29:34.446Z,0.90
2022-10-09T13:34:35.912Z,1.05
2022-10-09T13:39:37.599Z,1.20
2022-10-09T13:44:39.015Z,1.10
2022-10-09T13:49:40.555Z,0.82
2022-10-09T13:54:42.437Z,0.90
2022-10-09T13:59:43.909Z,1.17
2022-10-09T14:04:45.708Z,1.40
2022-10-09T14:09:47.214Z,0.82
2022-10-09T14:14:48.642Z,1.30
2022-10-09T14:19:50.620Z,0.88
2022-10-09T14:24:52.062Z,1.17
2022-10-09T14:29:55.393Z,1.38
2022-10-09T14:34:59.003Z,1.05
2022-10-09T14:40:00.413Z,0.98
2022-10-09T14:45:01.943Z,1.00
2022-10-09T14:50:03.947Z,1.00
2022-10-09T14:55:05.797Z,1.27
2022-10-09T15:00:08.787Z,1.35
2022-10-09T15:05:10.571Z,1.52
2022-10-09T15:10:12.259Z,1.08
2022-10-09T15:15:13.812Z,1.10
2022-10-09T15:20:15.376Z,1.50
2022-10-09T15:25:16.872Z,1.17
2022-10-09T15:30:18.307Z,1.30
2022-10-09T15:35:20.167Z,1.70
2022-10-09T15:40:21.629Z,1.60
2022-10-09T15:45:23.050Z,1.60
2022-10-09T15:50:24.453Z,1.65
2022-10-09T15:55:25.860Z,1.75
2022-10-09T16:00:27.256Z,1.75
2022-10-09T16:05:28.661Z,2.28
2022-10-09T16:10:30.065Z,3.15
2022-10-09T16:15:31.465Z,2.80
2022-10-09T16:20:37.502Z,3.58
2022-10-09T16:25:40.162Z,5.10
2022-10-09T16:30:44.304Z,4.80
2022-10-09T16:35:46.381Z,4.07
2022-10-09T16:41:01.494Z,3.28
2022-10-09T16:46:23.367Z,3.20
2022-10-09T16:51:31.527Z,3.47
2022-10-09T16:56:36.208Z,3.88
2022-10-09T17:01:43.521Z,5.15
2022-10-09T17:06:46.432Z,5.30
2022-10-09T17:11:48.360Z,5.95
2022-10-09T17:16:49.848Z,5.45
2022-10-09T17:21:51.260Z,6.30
2022-10-09T17:26:53.076Z,6.03
2022-10-09T17:31:54.559Z,6.70
2022-10-09T17:36:56.551Z,8.00
2022-10-09T17:41:58.033Z,8.57
2022-10-09T17:47:00.810Z,7.97
2022-10-09T17:52:02.291Z,8.27
2022-10-09T17:57:06.846Z,25.77
2022-10-09T18:02:08.326Z,40.15
2022-10-09T18:07:09.760Z,45.33
2022-10-09T18:12:11.180Z,46.47
2022-10-09T18:17:12.633Z,64.68
2022-10-09T18:22:14.052Z,25.77
2022-10-09T18:27:15.489Z,19.55
2022-10-09T18:32:16.900Z,29.70
2022-10-09T18:37:19.965Z,20.63
2022-10-09T18:42:21.387Z,15.05
2022-10-09T18:47:28.290Z,12.65
2022-10-09T18:52:30.201Z,11.82
2022-10-09T18:57:33.288Z,11.52
2022-10-09T19:02:34.753Z,11.00
2022-10-09T19:07:36.287Z,14.15
2022-10-09T19:12:37.809Z,10.48
2022-10-09T19:17:39.237Z,11.23
2022-10-09T19:22:40.730Z,11.35
2022-10-09T19:27:42.140Z,11.60
2022-10-09T19:32:43.596Z,11.98
2022-10-09T19:37:45.049Z,12.20
2022-10-09T19:42:46.488Z,10.80
2022-10-09T19:47:52.300Z,9.90
2022-10-09T19:52:56.229Z,10.18
2022-10-09T19:57:57.969Z,10.63
2022-10-09T20:02:59.423Z,11.57
2022-10-09T20:08:01.318Z,12.38
2022-10-09T20:13:03.322Z,12.18
2022-10-09T20:18:04.785Z,22.13
2022-10-09T20:23:06.205Z,19.95
2022-10-09T20:28:07.623Z,29.98
2022-10-09T20:33:09.389Z,30.58
2022-10-09T20:38:10.824Z,25.33
2022-10-09T20:43:13.340Z,18.48
2022-10-09T20:48:14.833Z,14.52
2022-10-09T20:53:16.855Z,15.73
2022-10-09T20:58:19.354Z,16.95
2022-10-09T21:03:20.873Z,19.27
2022-10-09T21:08:22.411Z,16.13
2022-10-09T21:13:23.966Z,15.70
2022-10-09T21:18:25.444Z,17.17
2022-10-09T21:23:26.853Z,18.02
2022-10-09T21:28:28.639Z,18.65
2022-10-09T21:33:30.074Z,17.67
2022-10-09T21:38:33.002Z,16.08
2022-10-09T21:43:34.452Z,15.77
2022-10-09T21:48:35.866Z,14.85
2022-10-09T21:53:37.484Z,12.90
2022-10-09T21:58:40.301Z,11.85
2022-10-09T22:03:41.872Z,11.93
2022-10-09T22:08:43.683Z,10.32
2022-10-09T22:13:45.153Z,10.68
2022-10-09T22:18:46.576Z,10.07
2022-10-09T22:23:48.248Z,9.38
2022-10-09T22:28:50.360Z,9.27
2022-10-09T22:34:00.396Z,8.52
2022-10-09T22:39:05.092Z,10.43
2022-10-09T22:44:07.996Z,9.10
2022-10-09T22:49:12.511Z,6.80
2022-10-09T22:54:14.086Z,14.20
2022-10-09T22:59:17.941Z,7.18
2022-10-09T23:04:21.541Z,7.15
2022-10-09T23:09:25.578Z,6.75
2022-10-09T23:14:27.662Z,7.35
2022-10-09T23:19:29.064Z,6.68
2022-10-09T23:24:30.503Z,7.53
2022-10-09T23:29:31.953Z,6.88
2022-10-09T23:34:33.395Z,7.18
2022-10-09T23:39:34.939Z,6.40
2022-10-09T23:44:36.349Z,10.35
2022-10-09T23:49:37.844Z,7.40
2022-10-09T23:54:39.251Z,7.13
2022-10-09T23:59:41.627Z,7.18
